sensor_id;sensor_type;location;lat;lon;timestamp;pressure;altitude;pressure_sealevel;temperature;humidity
46642;BME280;32370;41.864;-88.124;2023-02-04T00:01:13;100787.98;;;-14.03;43.86
46642;BME280;32370;41.864;-88.124;2023-02-04T00:03:42;100780.55;;;-13.95;43.54
46642;BME280;32370;41.864;-88.124;2023-02-04T00:06:10;100785.26;;;-14.43;43.80
46642;BME280;32370;41.864;-88.124;2023-02-04T00:08:38;100783.53;;;-14.53;44.98
46642;BME280;32370;41.864;-88.124;2023-02-04T00:11:08;100784.38;;;-13.76;44.14
46642;BME280;32370;41.864;-88.124;2023-02-04T00:13:36;100783.17;;;-15.22;43.68
46642;BME280;32370;41.864;-88.124;2023-02-04T00:16:05;100785.38;;;-16.08;46.69
46642;BME280;32370;41.864;-88.124;2023-02-04T00:18:33;100786.76;;;-16.49;46.13
46642;BME280;32370;41.864;-88.124;2023-02-04T00:21:02;100777.58;;;-16.11;45.39
46642;BME280;32370;41.864;-88.124;2023-02-04T00:23:30;100784.17;;;-16.78;45.68
46642;BME280;32370;41.864;-88.124;2023-02-04T00:26:01;100776.88;;;-17.05;47.45
46642;BME280;32370;41.864;-88.124;2023-02-04T00:28:29;100772.47;;;-16.71;49.67
46642;BME280;32370;41.864;-88.124;2023-02-04T00:30:57;100767.96;;;-16.64;47.37
46642;BME280;32370;41.864;-88.124;2023-02-04T00:33:26;100753.16;;;-15.72;47.35
46642;BME280;32370;41.864;-88.124;2023-02-04T00:35:54;100753.63;;;-15.41;45.37
46642;BME280;32370;41.864;-88.124;2023-02-04T00:38:23;100754.15;;;-15.21;45.89
46642;BME280;32370;41.864;-88.124;2023-02-04T00:40:51;100757.03;;;-15.19;45.09
46642;BME280;32370;41.864;-88.124;2023-02-04T00:43:19;100753.59;;;-16.18;46.23
46642;BME280;32370;41.864;-88.124;2023-02-04T00:45:48;100735.69;;;-15.65;46.47
46642;BME280;32370;41.864;-88.124;2023-02-04T00:48:16;100731.53;;;-15.38;45.71
46642;BME280;32370;41.864;-88.124;2023-02-04T00:50:44;100727.81;;;-15.01;45.66
46642;BME280;32370;41.864;-88.124;2023-02-04T00:53:12;100718.38;;;-14.88;45.55
46642;BME280;32370;41.864;-88.124;2023-02-04T00:55:41;100708.74;;;-14.77;45.24
46642;BME280;32370;41.864;-88.124;2023-02-04T00:58:09;100709.49;;;-15.19;45.30
46642;BME280;32370;41.864;-88.124;2023-02-04T01:00:38;100719.83;;;-15.30;44.82
46642;BME280;32370;41.864;-88.124;2023-02-04T01:03:06;100722.08;;;-14.97;44.98
46642;BME280;32370;41.864;-88.124;2023-02-04T01:05:34;100720.92;;;-14.80;44.92
46642;BME280;32370;41.864;-88.124;2023-02-04T01:08:02;100715.42;;;-14.91;44.20
46642;BME280;32370;41.864;-88.124;2023-02-04T01:10:31;100710.63;;;-14.59;44.46
46642;BME280;32370;41.864;-88.124;2023-02-04T01:13:00;100708.98;;;-14.75;44.42
46642;BME280;32370;41.864;-88.124;2023-02-04T01:15:28;100702.13;;;-14.98;44.36
46642;BME280;32370;41.864;-88.124;2023-02-04T01:17:56;100711.20;;;-15.29;43.88
46642;BME280;32370;41.864;-88.124;2023-02-04T01:20:24;100721.44;;;-15.10;44.36
46642;BME280;32370;41.864;-88.124;2023-02-04T01:22:52;100714.44;;;-14.92;44.22
46642;BME280;32370;41.864;-88.124;2023-02-04T01:25:21;100702.09;;;-15.47;43.93
46642;BME280;32370;41.864;-88.124;2023-02-04T01:27:49;100690.57;;;-14.47;43.45
46642;BME280;32370;41.864;-88.124;2023-02-04T01:30:17;100693.10;;;-14.41;42.67
46642;BME280;32370;41.864;-88.124;2023-02-04T01:32:45;100697.51;;;-14.83;42.50
46642;BME280;32370;41.864;-88.124;2023-02-04T01:35:14;100689.87;;;-14.10;41.68
46642;BME280;32370;41.864;-88.124;2023-02-04T01:37:42;100689.52;;;-14.99;42.62
46642;BME280;32370;41.864;-88.124;2023-02-04T01:40:11;100689.84;;;-15.06;42.95
46642;BME280;32370;41.864;-88.124;2023-02-04T01:42:39;100693.50;;;-15.65;44.43
46642;BME280;32370;41.864;-88.124;2023-02-04T01:45:08;100700.17;;;-15.19;44.18
46642;BME280;32370;41.864;-88.124;2023-02-04T01:47:37;100699.11;;;-14.75;44.03
46642;BME280;32370;41.864;-88.124;2023-02-04T01:50:07;100694.55;;;-14.93;44.11
46642;BME280;32370;41.864;-88.124;2023-02-04T01:52:38;100691.23;;;-15.36;44.59
46642;BME280;32370;41.864;-88.124;2023-02-04T01:55:14;100690.09;;;-14.70;44.70
46642;BME280;32370;41.864;-88.124;2023-02-04T01:57:43;100685.45;;;-14.93;44.81
46642;BME280;32370;41.864;-88.124;2023-02-04T02:00:15;100685.75;;;-14.69;44.72
46642;BME280;32370;41.864;-88.124;2023-02-04T02:02:46;100676.86;;;-14.68;44.91
46642;BME280;32370;41.864;-88.124;2023-02-04T02:05:16;100669.91;;;-14.62;44.61
46642;BME280;32370;41.864;-88.124;2023-02-04T02:07:46;100658.25;;;-14.87;44.85
46642;BME280;32370;41.864;-88.124;2023-02-04T02:10:15;100667.18;;;-14.86;44.76
46642;BME280;32370;41.864;-88.124;2023-02-04T02:12:44;100669.95;;;-15.57;44.95
46642;BME280;32370;41.864;-88.124;2023-02-04T02:15:14;100662.83;;;-15.06;44.92
46642;BME280;32370;41.864;-88.124;2023-02-04T02:17:42;100663.16;;;-15.02;44.93
46642;BME280;32370;41.864;-88.124;2023-02-04T02:20:13;100671.36;;;-15.26;45.52
46642;BME280;32370;41.864;-88.124;2023-02-04T02:22:48;100660.13;;;-14.45;45.05
46642;BME280;32370;41.864;-88.124;2023-02-04T02:25:18;100658.82;;;-14.61;44.64
46642;BME280;32370;41.864;-88.124;2023-02-04T02:27:46;100648.37;;;-14.61;45.12
46642;BME280;32370;41.864;-88.124;2023-02-04T02:30:15;100640.10;;;-15.51;44.73
46642;BME280;32370;41.864;-88.124;2023-02-04T02:32:44;100626.56;;;-14.90;44.94
46642;BME280;32370;41.864;-88.124;2023-02-04T02:35:14;100625.32;;;-14.52;44.93
46642;BME280;32370;41.864;-88.124;2023-02-04T02:37:42;100618.28;;;-14.69;45.58
46642;BME280;32370;41.864;-88.124;2023-02-04T02:40:11;100587.28;;;-14.93;45.87
46642;BME280;32370;41.864;-88.124;2023-02-04T02:42:42;100565.23;;;-15.28;46.66
46642;BME280;32370;41.864;-88.124;2023-02-04T02:45:22;100553.48;;;-15.83;47.70
46642;BME280;32370;41.864;-88.124;2023-02-04T02:47:51;100531.07;;;-15.54;47.32
46642;BME280;32370;41.864;-88.124;2023-02-04T02:50:22;100520.50;;;-15.48;47.93
46642;BME280;32370;41.864;-88.124;2023-02-04T02:52:51;100526.18;;;-15.73;47.75
46642;BME280;32370;41.864;-88.124;2023-02-04T02:55:21;100528.48;;;-15.37;48.51
46642;BME280;32370;41.864;-88.124;2023-02-04T02:57:51;100536.54;;;-15.67;48.44
46642;BME280;32370;41.864;-88.124;2023-02-04T03:00:22;100554.89;;;-15.83;48.54
46642;BME280;32370;41.864;-88.124;2023-02-04T03:02:55;100565.35;;;-15.41;48.49
46642;BME280;32370;41.864;-88.124;2023-02-04T03:05:24;100571.82;;;-14.80;47.93
46642;BME280;32370;41.864;-88.124;2023-02-04T03:07:53;100577.19;;;-14.65;47.70
46642;BME280;32370;41.864;-88.124;2023-02-04T03:10:21;100576.08;;;-14.46;47.72
46642;BME280;32370;41.864;-88.124;2023-02-04T03:12:49;100562.97;;;-14.31;47.70
46642;BME280;32370;41.864;-88.124;2023-02-04T03:15:19;100560.31;;;-15.10;48.23
46642;BME280;32370;41.864;-88.124;2023-02-04T03:17:47;100559.05;;;-15.16;48.97
46642;BME280;32370;41.864;-88.124;2023-02-04T03:20:16;100564.31;;;-15.24;48.54
46642;BME280;32370;41.864;-88.124;2023-02-04T03:22:44;100555.24;;;-15.61;49.08
46642;BME280;32370;41.864;-88.124;2023-02-04T03:25:12;100561.67;;;-15.15;48.75
46642;BME280;32370;41.864;-88.124;2023-02-04T03:27:40;100566.55;;;-14.96;48.30
46642;BME280;32370;41.864;-88.124;2023-02-04T03:30:09;100565.59;;;-14.75;48.07
46642;BME280;32370;41.864;-88.124;2023-02-04T03:32:37;100558.28;;;-14.82;48.70
46642;BME280;32370;41.864;-88.124;2023-02-04T03:35:05;100553.49;;;-15.13;48.81
46642;BME280;32370;41.864;-88.124;2023-02-04T03:37:33;100548.56;;;-15.07;48.67
46642;BME280;32370;41.864;-88.124;2023-02-04T03:40:02;100549.68;;;-15.31;48.77
46642;BME280;32370;41.864;-88.124;2023-02-04T03:42:30;100535.92;;;-14.79;48.76
46642;BME280;32370;41.864;-88.124;2023-02-04T03:44:58;100526.44;;;-15.67;49.70
46642;BME280;32370;41.864;-88.124;2023-02-04T03:47:27;100525.09;;;-15.88;49.91
46642;BME280;32370;41.864;-88.124;2023-02-04T03:49:55;100521.13;;;-16.01;50.36
46642;BME280;32370;41.864;-88.124;2023-02-04T03:52:23;100515.69;;;-16.19;50.51
46642;BME280;32370;41.864;-88.124;2023-02-04T03:54:52;100514.23;;;-16.35;51.17
46642;BME280;32370;41.864;-88.124;2023-02-04T03:57:21;100502.83;;;-15.84;51.01
46642;BME280;32370;41.864;-88.124;2023-02-04T03:59:48;100495.90;;;-16.00;50.86
46642;BME280;32370;41.864;-88.124;2023-02-04T04:02:17;100491.52;;;-15.15;50.57
46642;BME280;32370;41.864;-88.124;2023-02-04T04:04:45;100489.43;;;-16.27;51.41
46642;BME280;32370;41.864;-88.124;2023-02-04T04:07:13;100481.33;;;-15.31;50.74
46642;BME280;32370;41.864;-88.124;2023-02-04T04:09:42;100482.13;;;-15.76;50.71
46642;BME280;32370;41.864;-88.124;2023-02-04T04:12:10;100464.81;;;-15.62;50.52
46642;BME280;32370;41.864;-88.124;2023-02-04T04:14:38;100460.25;;;-15.54;50.66
46642;BME280;32370;41.864;-88.124;2023-02-04T04:17:08;100455.33;;;-15.87;50.98
46642;BME280;32370;41.864;-88.124;2023-02-04T04:19:37;100449.58;;;-15.84;51.37
46642;BME280;32370;41.864;-88.124;2023-02-04T04:22:05;100443.70;;;-15.76;50.72
46642;BME280;32370;41.864;-88.124;2023-02-04T04:24:32;100446.25;;;-15.74;50.61
46642;BME280;32370;41.864;-88.124;2023-02-04T04:27:01;100458.51;;;-15.30;50.23
46642;BME280;32370;41.864;-88.124;2023-02-04T04:29:29;100465.05;;;-15.34;50.33
46642;BME280;32370;41.864;-88.124;2023-02-04T04:31:57;100470.12;;;-15.20;49.99
46642;BME280;32370;41.864;-88.124;2023-02-04T04:34:26;100479.95;;;-15.10;49.69
46642;BME280;32370;41.864;-88.124;2023-02-04T04:36:54;100486.34;;;-15.17;49.43
46642;BME280;32370;41.864;-88.124;2023-02-04T04:39:22;100505.61;;;-15.99;51.41
46642;BME280;32370;41.864;-88.124;2023-02-04T04:41:51;100518.12;;;-16.60;53.89
46642;BME280;32370;41.864;-88.124;2023-02-04T04:44:19;100510.65;;;-16.63;53.83
46642;BME280;32370;41.864;-88.124;2023-02-04T04:46:47;100515.76;;;-16.11;53.35
46642;BME280;32370;41.864;-88.124;2023-02-04T04:49:16;100513.44;;;-16.32;53.54
46642;BME280;32370;41.864;-88.124;2023-02-04T04:51:44;100513.60;;;-15.54;52.67
46642;BME280;32370;41.864;-88.124;2023-02-04T04:54:12;100503.25;;;-15.19;52.93
46642;BME280;32370;41.864;-88.124;2023-02-04T04:56:41;100489.86;;;-14.60;52.22
46642;BME280;32370;41.864;-88.124;2023-02-04T04:59:09;100477.05;;;-14.51;52.23
46642;BME280;32370;41.864;-88.124;2023-02-04T05:01:37;100478.01;;;-14.30;51.93
46642;BME280;32370;41.864;-88.124;2023-02-04T05:04:06;100484.14;;;-13.94;51.54
46642;BME280;32370;41.864;-88.124;2023-02-04T05:06:34;100493.03;;;-14.04;50.39
46642;BME280;32370;41.864;-88.124;2023-02-04T05:09:02;100502.56;;;-14.22;51.61
46642;BME280;32370;41.864;-88.124;2023-02-04T05:11:31;100503.10;;;-14.46;51.05
46642;BME280;32370;41.864;-88.124;2023-02-04T05:13:59;100500.59;;;-14.85;51.65
46642;BME280;32370;41.864;-88.124;2023-02-04T05:16:27;100506.72;;;-13.94;51.19
46642;BME280;32370;41.864;-88.124;2023-02-04T05:18:57;100503.64;;;-13.79;50.46
46642;BME280;32370;41.864;-88.124;2023-02-04T05:21:25;100496.06;;;-13.91;50.19
46642;BME280;32370;41.864;-88.124;2023-02-04T05:23:54;100498.40;;;-13.67;50.11
46642;BME280;32370;41.864;-88.124;2023-02-04T05:26:22;100490.13;;;-13.88;50.10
46642;BME280;32370;41.864;-88.124;2023-02-04T05:28:50;100481.97;;;-13.56;50.77
46642;BME280;32370;41.864;-88.124;2023-02-04T05:31:19;100484.47;;;-13.14;50.18
46642;BME280;32370;41.864;-88.124;2023-02-04T05:33:47;100477.86;;;-13.37;50.22
46642;BME280;32370;41.864;-88.124;2023-02-04T05:36:15;100472.89;;;-12.96;49.37
46642;BME280;32370;41.864;-88.124;2023-02-04T05:38:43;100473.15;;;-12.94;49.50
46642;BME280;32370;41.864;-88.124;2023-02-04T05:41:12;100472.31;;;-13.29;49.81
46642;BME280;32370;41.864;-88.124;2023-02-04T05:43:40;100460.52;;;-13.68;50.85
46642;BME280;32370;41.864;-88.124;2023-02-04T05:46:08;100455.67;;;-13.12;50.32
46642;BME280;32370;41.864;-88.124;2023-02-04T05:48:37;100440.21;;;-12.89;50.52
46642;BME280;32370;41.864;-88.124;2023-02-04T05:51:05;100415.96;;;-13.39;50.89
46642;BME280;32370;41.864;-88.124;2023-02-04T05:53:33;100408.31;;;-13.42;50.62
46642;BME280;32370;41.864;-88.124;2023-02-04T05:56:02;100402.14;;;-13.20;50.71
46642;BME280;32370;41.864;-88.124;2023-02-04T05:58:30;100405.00;;;-13.02;51.29
46642;BME280;32370;41.864;-88.124;2023-02-04T06:00:58;100414.51;;;-13.60;51.56
46642;BME280;32370;41.864;-88.124;2023-02-04T06:03:27;100420.43;;;-13.11;51.79
46642;BME280;32370;41.864;-88.124;2023-02-04T06:05:56;100427.87;;;-13.29;52.14
46642;BME280;32370;41.864;-88.124;2023-02-04T06:08:24;100421.57;;;-13.14;51.62
46642;BME280;32370;41.864;-88.124;2023-02-04T06:10:52;100412.26;;;-13.12;51.60
46642;BME280;32370;41.864;-88.124;2023-02-04T06:13:20;100399.08;;;-13.13;51.81
46642;BME280;32370;41.864;-88.124;2023-02-04T06:15:49;100398.06;;;-12.85;51.67
46642;BME280;32370;41.864;-88.124;2023-02-04T06:18:17;100392.46;;;-12.85;51.97
46642;BME280;32370;41.864;-88.124;2023-02-04T06:20:45;100381.21;;;-13.04;52.02
46642;BME280;32370;41.864;-88.124;2023-02-04T06:23:13;100381.79;;;-13.26;52.99
46642;BME280;32370;41.864;-88.124;2023-02-04T06:25:42;100372.40;;;-13.32;53.29
46642;BME280;32370;41.864;-88.124;2023-02-04T06:28:10;100351.25;;;-13.38;53.31
46642;BME280;32370;41.864;-88.124;2023-02-04T06:30:38;100342.08;;;-13.39;53.46
46642;BME280;32370;41.864;-88.124;2023-02-04T06:33:07;100340.79;;;-13.00;52.86
46642;BME280;32370;41.864;-88.124;2023-02-04T06:35:35;100337.84;;;-13.09;52.81
46642;BME280;32370;41.864;-88.124;2023-02-04T06:38:03;100328.46;;;-12.96;53.28
46642;BME280;32370;41.864;-88.124;2023-02-04T06:40:31;100326.21;;;-12.70;52.24
46642;BME280;32370;41.864;-88.124;2023-02-04T06:43:00;100314.61;;;-12.71;52.29
46642;BME280;32370;41.864;-88.124;2023-02-04T06:45:28;100306.14;;;-12.65;51.61
46642;BME280;32370;41.864;-88.124;2023-02-04T06:47:56;100299.79;;;-12.66;52.39
46642;BME280;32370;41.864;-88.124;2023-02-04T06:50:25;100299.54;;;-12.68;51.95
46642;BME280;32370;41.864;-88.124;2023-02-04T06:52:53;100291.77;;;-12.78;52.33
46642;BME280;32370;41.864;-88.124;2023-02-04T06:55:21;100282.19;;;-13.22;52.95
46642;BME280;32370;41.864;-88.124;2023-02-04T06:57:49;100275.50;;;-13.09;52.88
46642;BME280;32370;41.864;-88.124;2023-02-04T07:00:18;100274.67;;;-13.34;53.71
46642;BME280;32370;41.864;-88.124;2023-02-04T07:02:46;100267.17;;;-12.74;53.12
46642;BME280;32370;41.864;-88.124;2023-02-04T07:05:14;100260.87;;;-13.07;52.44
46642;BME280;32370;41.864;-88.124;2023-02-04T07:07:42;100256.01;;;-12.54;52.41
46642;BME280;32370;41.864;-88.124;2023-02-04T07:10:10;100268.64;;;-12.90;52.77
46642;BME280;32370;41.864;-88.124;2023-02-04T07:12:39;100270.38;;;-12.64;52.46
46642;BME280;32370;41.864;-88.124;2023-02-04T07:15:08;100265.19;;;-12.59;52.61
46642;BME280;32370;41.864;-88.124;2023-02-04T07:17:36;100262.82;;;-12.44;52.93
46642;BME280;32370;41.864;-88.124;2023-02-04T07:20:05;100261.04;;;-12.38;52.98
46642;BME280;32370;41.864;-88.124;2023-02-04T07:22:34;100258.61;;;-12.42;51.74
46642;BME280;32370;41.864;-88.124;2023-02-04T07:25:02;100257.17;;;-12.15;52.10
46642;BME280;32370;41.864;-88.124;2023-02-04T07:27:30;100257.20;;;-12.84;52.37
46642;BME280;32370;41.864;-88.124;2023-02-04T07:29:58;100260.15;;;-12.47;52.56
46642;BME280;32370;41.864;-88.124;2023-02-04T07:32:27;100265.26;;;-12.41;52.97
46642;BME280;32370;41.864;-88.124;2023-02-04T07:34:55;100263.22;;;-12.51;52.33
46642;BME280;32370;41.864;-88.124;2023-02-04T07:37:23;100258.09;;;-12.95;52.81
46642;BME280;32370;41.864;-88.124;2023-02-04T07:39:51;100259.53;;;-13.13;53.07
46642;BME280;32370;41.864;-88.124;2023-02-04T07:42:20;100256.51;;;-12.69;53.23
46642;BME280;32370;41.864;-88.124;2023-02-04T07:44:48;100252.85;;;-13.17;52.65
46642;BME280;32370;41.864;-88.124;2023-02-04T07:47:16;100246.74;;;-12.53;53.12
46642;BME280;32370;41.864;-88.124;2023-02-04T07:49:44;100236.06;;;-13.15;53.19
46642;BME280;32370;41.864;-88.124;2023-02-04T07:52:13;100224.54;;;-13.10;53.38
46642;BME280;32370;41.864;-88.124;2023-02-04T07:54:41;100214.69;;;-13.19;52.86
46642;BME280;32370;41.864;-88.124;2023-02-04T07:57:09;100205.58;;;-12.98;52.27
46642;BME280;32370;41.864;-88.124;2023-02-04T07:59:37;100198.74;;;-13.22;52.91
46642;BME280;32370;41.864;-88.124;2023-02-04T08:02:06;100187.93;;;-13.01;52.94
46642;BME280;32370;41.864;-88.124;2023-02-04T08:04:34;100173.00;;;-13.40;53.48
46642;BME280;32370;41.864;-88.124;2023-02-04T08:07:02;100161.31;;;-13.28;53.53
46642;BME280;32370;41.864;-88.124;2023-02-04T08:09:30;100153.93;;;-13.50;53.85
46642;BME280;32370;41.864;-88.124;2023-02-04T08:11:59;100152.51;;;-13.68;53.47
46642;BME280;32370;41.864;-88.124;2023-02-04T08:14:27;100152.42;;;-13.34;54.12
46642;BME280;32370;41.864;-88.124;2023-02-04T08:16:55;100148.45;;;-13.77;54.91
46642;BME280;32370;41.864;-88.124;2023-02-04T08:19:23;100138.36;;;-13.51;54.83
46642;BME280;32370;41.864;-88.124;2023-02-04T08:21:52;100129.66;;;-13.67;54.99
46642;BME280;32370;41.864;-88.124;2023-02-04T08:24:21;100117.43;;;-13.68;54.91
46642;BME280;32370;41.864;-88.124;2023-02-04T08:26:49;100108.81;;;-13.38;54.77
46642;BME280;32370;41.864;-88.124;2023-02-04T08:29:17;100108.10;;;-13.47;54.58
46642;BME280;32370;41.864;-88.124;2023-02-04T08:31:46;100104.82;;;-13.51;54.74
46642;BME280;32370;41.864;-88.124;2023-02-04T08:34:14;100102.02;;;-13.59;54.91
46642;BME280;32370;41.864;-88.124;2023-02-04T08:36:42;100099.78;;;-13.61;54.88
46642;BME280;32370;41.864;-88.124;2023-02-04T08:39:10;100094.91;;;-13.62;54.81
46642;BME280;32370;41.864;-88.124;2023-02-04T08:41:39;100082.48;;;-13.32;54.38
46642;BME280;32370;41.864;-88.124;2023-02-04T08:44:07;100084.16;;;-13.08;54.27
46642;BME280;32370;41.864;-88.124;2023-02-04T08:46:35;100080.38;;;-13.20;54.35
46642;BME280;32370;41.864;-88.124;2023-02-04T08:49:03;100078.87;;;-13.52;54.85
46642;BME280;32370;41.864;-88.124;2023-02-04T08:51:32;100069.99;;;-13.23;54.55
46642;BME280;32370;41.864;-88.124;2023-02-04T08:54:00;100064.12;;;-12.76;54.18
46642;BME280;32370;41.864;-88.124;2023-02-04T08:56:28;100060.93;;;-13.16;54.30
46642;BME280;32370;41.864;-88.124;2023-02-04T08:58:57;100049.74;;;-13.12;54.88
46642;BME280;32370;41.864;-88.124;2023-02-04T09:01:25;100036.35;;;-13.27;54.62
46642;BME280;32370;41.864;-88.124;2023-02-04T09:03:53;100029.48;;;-13.31;55.38
46642;BME280;32370;41.864;-88.124;2023-02-04T09:06:21;100020.23;;;-12.71;54.57
46642;BME280;32370;41.864;-88.124;2023-02-04T09:08:50;100014.70;;;-12.83;54.08
46642;BME280;32370;41.864;-88.124;2023-02-04T09:11:18;100007.84;;;-12.84;54.32
46642;BME280;32370;41.864;-88.124;2023-02-04T09:13:46;100000.12;;;-12.75;54.37
46642;BME280;32370;41.864;-88.124;2023-02-04T09:16:14;99991.19;;;-12.82;54.55
46642;BME280;32370;41.864;-88.124;2023-02-04T09:18:43;99987.99;;;-12.63;54.19
46642;BME280;32370;41.864;-88.124;2023-02-04T09:21:11;99977.42;;;-12.56;54.06
46642;BME280;32370;41.864;-88.124;2023-02-04T09:23:39;99971.91;;;-12.74;54.67
46642;BME280;32370;41.864;-88.124;2023-02-04T09:26:08;99962.52;;;-12.62;54.95
46642;BME280;32370;41.864;-88.124;2023-02-04T09:28:37;99950.61;;;-12.76;54.67
46642;BME280;32370;41.864;-88.124;2023-02-04T09:31:05;99949.51;;;-12.74;54.54
46642;BME280;32370;41.864;-88.124;2023-02-04T09:33:33;99947.31;;;-12.60;54.18
46642;BME280;32370;41.864;-88.124;2023-02-04T09:36:01;99945.54;;;-13.10;54.86
46642;BME280;32370;41.864;-88.124;2023-02-04T09:38:30;99943.52;;;-13.05;55.35
46642;BME280;32370;41.864;-88.124;2023-02-04T09:41:01;99937.52;;;-12.94;55.18
46642;BME280;32370;41.864;-88.124;2023-02-04T09:43:32;99931.96;;;-12.77;55.44
46642;BME280;32370;41.864;-88.124;2023-02-04T09:46:02;99934.08;;;-13.27;55.90
46642;BME280;32370;41.864;-88.124;2023-02-04T09:48:30;99923.51;;;-12.77;55.38
46642;BME280;32370;41.864;-88.124;2023-02-04T09:51:04;99920.61;;;-13.05;55.38
46642;BME280;32370;41.864;-88.124;2023-02-04T09:53:33;99910.90;;;-13.09;55.61
46642;BME280;32370;41.864;-88.124;2023-02-04T09:56:02;99908.63;;;-12.73;55.32
46642;BME280;32370;41.864;-88.124;2023-02-04T09:58:33;99893.39;;;-12.60;55.20
46642;BME280;32370;41.864;-88.124;2023-02-04T10:01:10;99892.12;;;-12.80;55.51
46642;BME280;32370;41.864;-88.124;2023-02-04T10:03:40;99894.36;;;-12.74;55.58
46642;BME280;32370;41.864;-88.124;2023-02-04T10:06:09;99889.16;;;-12.27;55.46
46642;BME280;32370;41.864;-88.124;2023-02-04T10:08:39;99876.64;;;-13.00;56.52
46642;BME280;32370;41.864;-88.124;2023-02-04T10:11:08;99871.65;;;-12.67;56.04
46642;BME280;32370;41.864;-88.124;2023-02-04T10:13:38;99862.34;;;-12.94;56.64
46642;BME280;32370;41.864;-88.124;2023-02-04T10:16:13;99859.95;;;-13.05;56.77
46642;BME280;32370;41.864;-88.124;2023-02-04T10:18:42;99853.41;;;-12.91;56.65
46642;BME280;32370;41.864;-88.124;2023-02-04T10:21:16;99850.59;;;-12.97;57.09
46642;BME280;32370;41.864;-88.124;2023-02-04T10:23:47;99842.62;;;-12.94;57.40
46642;BME280;32370;41.864;-88.124;2023-02-04T10:26:18;99839.27;;;-12.91;57.21
46642;BME280;32370;41.864;-88.124;2023-02-04T10:28:47;99832.67;;;-13.01;57.53
46642;BME280;32370;41.864;-88.124;2023-02-04T10:31:33;99831.09;;;-13.14;57.65
46642;BME280;32370;41.864;-88.124;2023-02-04T10:34:05;99820.18;;;-12.95;57.70
46642;BME280;32370;41.864;-88.124;2023-02-04T10:36:33;99813.02;;;-12.85;57.52
46642;BME280;32370;41.864;-88.124;2023-02-04T10:39:03;99802.41;;;-12.73;58.20
46642;BME280;32370;41.864;-88.124;2023-02-04T10:41:32;99794.12;;;-12.57;57.21
46642;BME280;32370;41.864;-88.124;2023-02-04T10:44:05;99794.79;;;-12.91;57.70
46642;BME280;32370;41.864;-88.124;2023-02-04T10:46:33;99790.46;;;-13.10;58.58
46642;BME280;32370;41.864;-88.124;2023-02-04T10:49:04;99788.04;;;-12.96;58.72
46642;BME280;32370;41.864;-88.124;2023-02-04T10:51:32;99787.51;;;-12.41;58.07
46642;BME280;32370;41.864;-88.124;2023-02-04T10:54:00;99777.95;;;-12.23;58.22
46642;BME280;32370;41.864;-88.124;2023-02-04T10:56:28;99771.61;;;-12.58;58.50
46642;BME280;32370;41.864;-88.124;2023-02-04T10:58:56;99764.26;;;-12.69;58.48
46642;BME280;32370;41.864;-88.124;2023-02-04T11:01:26;99761.24;;;-12.29;58.41
46642;BME280;32370;41.864;-88.124;2023-02-04T11:03:55;99759.97;;;-12.43;58.66
46642;BME280;32370;41.864;-88.124;2023-02-04T11:06:24;99759.52;;;-12.57;58.98
46642;BME280;32370;41.864;-88.124;2023-02-04T11:08:52;99758.12;;;-12.80;59.43
46642;BME280;32370;41.864;-88.124;2023-02-04T11:11:23;99746.87;;;-12.65;59.12
46642;BME280;32370;41.864;-88.124;2023-02-04T11:13:59;99744.07;;;-12.16;59.04
46642;BME280;32370;41.864;-88.124;2023-02-04T11:16:29;99737.28;;;-11.99;58.54
46642;BME280;32370;41.864;-88.124;2023-02-04T11:18:59;99732.46;;;-12.52;59.18
46642;BME280;32370;41.864;-88.124;2023-02-04T11:21:40;99729.26;;;-12.09;59.55
46642;BME280;32370;41.864;-88.124;2023-02-04T11:24:23;99728.52;;;-12.61;59.65
46642;BME280;32370;41.864;-88.124;2023-02-04T11:27:06;99713.83;;;-12.45;59.59
46642;BME280;32370;41.864;-88.124;2023-02-04T11:29:36;99709.39;;;-12.62;60.00
46642;BME280;32370;41.864;-88.124;2023-02-04T11:32:06;99710.40;;;-12.53;59.86
46642;BME280;32370;41.864;-88.124;2023-02-04T11:34:52;99704.41;;;-12.24;60.06
46642;BME280;32370;41.864;-88.124;2023-02-04T11:37:37;99702.31;;;-12.68;60.57
46642;BME280;32370;41.864;-88.124;2023-02-04T11:40:22;99698.27;;;-12.89;60.94
46642;BME280;32370;41.864;-88.124;2023-02-04T11:42:57;99694.12;;;-12.72;61.17
46642;BME280;32370;41.864;-88.124;2023-02-04T11:45:28;99693.12;;;-12.34;60.78
46642;BME280;32370;41.864;-88.124;2023-02-04T11:47:58;99695.42;;;-12.35;61.27
46642;BME280;32370;41.864;-88.124;2023-02-04T11:50:28;99688.58;;;-12.31;60.76
46642;BME280;32370;41.864;-88.124;2023-02-04T11:52:58;99687.04;;;-12.29;60.56
46642;BME280;32370;41.864;-88.124;2023-02-04T11:55:26;99681.33;;;-12.08;60.46
46642;BME280;32370;41.864;-88.124;2023-02-04T11:57:56;99677.85;;;-12.05;60.68
46642;BME280;32370;41.864;-88.124;2023-02-04T12:00:29;99677.60;;;-11.96;60.57
46642;BME280;32370;41.864;-88.124;2023-02-04T12:03:01;99668.63;;;-11.88;60.31
46642;BME280;32370;41.864;-88.124;2023-02-04T12:05:37;99667.60;;;-12.10;60.26
46642;BME280;32370;41.864;-88.124;2023-02-04T12:08:12;99655.47;;;-11.89;60.66
46642;BME280;32370;41.864;-88.124;2023-02-04T12:10:48;99648.08;;;-12.11;60.58
46642;BME280;32370;41.864;-88.124;2023-02-04T12:13:18;99643.23;;;-12.09;61.26
46642;BME280;32370;41.864;-88.124;2023-02-04T12:15:58;99636.00;;;-11.91;61.03
46642;BME280;32370;41.864;-88.124;2023-02-04T12:18:27;99635.31;;;-12.00;61.47
46642;BME280;32370;41.864;-88.124;2023-02-04T12:20:55;99633.94;;;-12.00;61.66
46642;BME280;32370;41.864;-88.124;2023-02-04T12:23:24;99624.03;;;-11.76;61.45
46642;BME280;32370;41.864;-88.124;2023-02-04T12:25:52;99618.03;;;-11.70;61.39
46642;BME280;32370;41.864;-88.124;2023-02-04T12:28:23;99618.74;;;-11.97;61.68
46642;BME280;32370;41.864;-88.124;2023-02-04T12:30:51;99614.43;;;-11.92;61.76
46642;BME280;32370;41.864;-88.124;2023-02-04T12:33:19;99613.26;;;-11.73;61.90